Time;durP1;ratioP1;P1;durP2;ratioP2;P2;SDS_P1;SDS_P2;PMS_P1;PMS_P2;Temp;Humidity;BMP_temperature;BMP_pressure;BME280_temperature;BME280_humidity;BME280_pressure;Samples;Min_cycle;Max_cycle;Signal;HPM_P1;HPM_P2
2022/04/13 00:00:30;;;;;;;13.32;3.80;;;;;;;14.88;57.05;101072.69;5010589;28;20040;-68
2022/04/13 00:02:56;;;;;;;10.88;3.88;;;;;;;14.85;57.03;101066.91;5005514;28;20026;-68
2022/04/13 00:05:22;;;;;;;10.10;3.78;;;;;;;14.84;57.23;101071.41;5012778;28;20071;-68
2022/04/13 00:07:47;;;;;;;9.23;3.97;;;;;;;14.80;57.18;101078.19;5012248;28;20105;-68
2022/04/13 00:10:14;;;;;;;14.48;4.15;;;;;;;14.73;57.52;101071.09;5010788;28;20053;-68
2022/04/13 00:12:39;;;;;;;11.40;4.15;;;;;;;14.68;57.72;101065.50;5010221;28;20503;-68
2022/04/13 00:15:06;;;;;;;10.32;3.85;;;;;;;14.68;57.60;101073.50;5011320;28;20029;-68
2022/04/13 00:17:32;;;;;;;11.23;4.22;;;;;;;14.66;57.88;101067.53;5021681;28;20113;-68
2022/04/13 00:19:58;;;;;;;14.52;4.43;;;;;;;14.61;58.08;101078.81;5008939;28;20114;-68
2022/04/13 00:22:24;;;;;;;13.65;4.03;;;;;;;14.60;58.41;101077.16;5012757;28;20037;-68
2022/04/13 00:24:49;;;;;;;12.70;4.35;;;;;;;14.52;58.36;101066.59;5017948;28;20095;-68
2022/04/13 00:27:14;;;;;;;13.35;4.07;;;;;;;14.50;58.38;101090.84;5018199;28;20072;-68
2022/04/13 00:29:40;;;;;;;12.27;4.38;;;;;;;14.37;58.83;101087.97;5012585;28;20041;-68
2022/04/13 00:32:06;;;;;;;16.20;4.28;;;;;;;14.30;59.10;101088.94;5023100;28;20593;-68
2022/04/13 00:34:32;;;;;;;11.57;4.30;;;;;;;14.28;59.43;101086.44;5017482;28;20544;-68
2022/04/13 00:36:57;;;;;;;11.02;4.20;;;;;;;14.28;59.41;101086.44;5022354;28;20112;-68
2022/04/13 00:39:26;;;;;;;14.10;4.60;;;;;;;14.26;59.08;101089.31;5022171;28;20039;-68
2022/04/13 00:42:18;;;;;;;9.05;4.10;;;;;;;14.26;59.55;101101.84;5017921;28;20034;-68
2022/04/13 00:44:43;;;;;;;11.00;4.60;;;;;;;14.14;59.69;101100.66;5009027;28;20077;-67
2022/04/13 00:47:08;;;;;;;13.52;4.78;;;;;;;13.98;59.82;101096.38;5014058;28;20049;-68
2022/04/13 00:49:35;;;;;;;11.27;4.57;;;;;;;13.81;60.55;101111.75;5025303;28;20100;-68
2022/04/13 00:52:02;;;;;;;11.00;4.38;;;;;;;13.62;61.07;101113.16;5013176;28;20028;-68
2022/04/13 00:54:32;;;;;;;13.93;4.60;;;;;;;13.51;61.54;101121.59;5013039;28;20029;-68
2022/04/13 00:56:58;;;;;;;17.10;4.63;;;;;;;13.43;61.90;101118.19;5017703;28;20433;-68
2022/04/13 00:59:25;;;;;;;8.80;4.40;;;;;;;13.35;62.16;101121.78;5008085;28;20029;-68
2022/04/13 01:01:58;;;;;;;10.23;4.28;;;;;;;13.29;62.53;101117.13;5010718;28;20401;-68
2022/04/13 01:04:26;;;;;;;16.33;4.75;;;;;;;13.27;62.80;101125.31;5013487;28;20029;-68
2022/04/13 01:06:52;;;;;;;18.35;5.57;;;;;;;13.25;63.35;101131.84;5022620;28;20032;-67
2022/04/13 01:09:18;;;;;;;14.73;5.47;;;;;;;13.20;63.06;101134.25;5012801;28;20021;-68
2022/04/13 01:11:44;;;;;;;16.95;5.50;;;;;;;13.08;63.56;101135.66;5020358;28;20026;-67
2022/04/13 01:14:09;;;;;;;13.05;5.50;;;;;;;12.99;63.93;101141.03;5013217;28;20025;-68
2022/04/13 01:16:35;;;;;;;16.63;5.70;;;;;;;12.93;63.65;101143.59;5013880;28;20021;-68
2022/04/13 01:19:03;;;;;;;10.55;5.18;;;;;;;12.85;64.33;101149.81;5008486;28;20141;-68
2022/04/13 01:21:42;;;;;;;14.27;5.90;;;;;;;12.81;64.56;101155.69;5018563;28;20465;-68
2022/04/13 01:24:07;;;;;;;;;;;;;;;12.83;64.47;101154.50;5017759;28;20068;-68
2022/04/13 01:26:33;;;;;;;15.35;6.00;;;;;;;12.70;64.64;101159.56;5012078;28;19949;-68
2022/04/13 01:28:58;;;;;;;16.25;6.35;;;;;;;12.62;65.15;101163.13;5009992;28;20056;-68
2022/04/13 01:31:24;;;;;;;16.42;6.20;;;;;;;12.57;66.05;101159.34;5010013;28;20462;-68
2022/04/13 01:33:49;;;;;;;15.82;6.10;;;;;;;12.55;66.48;101166.69;5017331;28;20595;-68
2022/04/13 01:36:14;;;;;;;16.60;6.65;;;;;;;12.49;66.61;101167.38;5013040;28;20121;-68
2022/04/13 01:38:39;;;;;;;16.58;6.65;;;;;;;12.49;67.20;101170.88;5015468;28;20033;-67
2022/04/13 01:41:05;;;;;;;16.13;6.70;;;;;;;12.52;67.57;101178.50;5020131;28;20026;-68
2022/04/13 01:43:30;;;;;;;17.50;6.68;;;;;;;12.48;67.61;101177.22;5016325;28;20038;-68
2022/04/13 01:45:56;;;;;;;16.63;7.25;;;;;;;12.41;68.03;101170.91;5014288;28;20709;-68
2022/04/13 01:48:21;;;;;;;17.70;7.13;;;;;;;12.43;68.33;101178.72;5021700;28;20040;-68
2022/04/13 01:50:46;;;;;;;14.63;6.82;;;;;;;12.41;68.64;101181.56;5015958;28;20544;-68
2022/04/13 01:53:12;;;;;;;15.68;6.60;;;;;;;12.42;68.50;101193.88;5016018;28;20044;-68
2022/04/13 01:55:37;;;;;;;14.40;7.40;;;;;;;12.43;69.19;101194.69;5017807;28;20022;-68
2022/04/13 01:58:02;;;;;;;14.68;7.45;;;;;;;12.41;69.78;101193.03;5012967;28;20087;-68
2022/04/13 02:00:28;;;;;;;16.75;7.75;;;;;;;12.46;69.80;101197.88;5012071;28;20034;-68
2022/04/13 02:02:53;;;;;;;16.17;7.88;;;;;;;12.45;69.67;101192.72;5011387;28;20040;-68
2022/04/13 02:05:19;;;;;;;18.80;7.80;;;;;;;12.43;70.07;101190.19;5015598;28;20426;-68
2022/04/13 02:07:44;;;;;;;18.88;8.27;;;;;;;12.45;70.19;101188.22;5008135;28;20036;-68
2022/04/13 02:10:09;;;;;;;18.88;8.43;;;;;;;12.44;70.29;101188.41;5009665;28;20034;-68
2022/04/13 02:12:35;;;;;;;17.70;7.82;;;;;;;12.50;70.29;101195.69;5022182;28;20163;-68
2022/04/13 02:15:01;;;;;;;18.67;8.13;;;;;;;12.52;70.88;101193.66;5008993;28;20033;-68
2022/04/13 02:17:27;;;;;;;18.10;8.40;;;;;;;12.55;70.88;101196.81;5012415;28;20037;-68
2022/04/13 02:19:52;;;;;;;17.83;8.18;;;;;;;12.57;71.03;101204.63;5010338;28;20026;-68
2022/04/13 02:22:17;;;;;;;21.35;8.48;;;;;;;12.57;71.14;101208.13;5019449;28;20639;-68
2022/04/13 02:24:42;;;;;;;17.50;8.85;;;;;;;12.58;71.41;101214.28;5011329;28;20033;-68
2022/04/13 02:27:09;;;;;;;16.50;8.85;;;;;;;12.58;71.61;101208.94;5014537;28;20129;-67
2022/04/13 02:29:35;;;;;;;19.45;8.43;;;;;;;12.60;71.62;101212.28;5009841;28;20029;-68
2022/04/13 02:32:14;;;;;;;18.13;8.40;;;;;;;12.62;71.95;101215.59;5013639;28;20034;-68
2022/04/13 02:34:39;;;;;;;18.50;8.07;;;;;;;12.64;71.93;101209.06;5005923;28;20184;-68
2022/04/13 02:37:04;;;;;;;20.33;8.00;;;;;;;12.69;71.69;101209.38;5009354;28;20124;-68
2022/04/13 02:39:29;;;;;;;16.30;7.50;;;;;;;12.75;72.02;101213.19;5006147;28;20026;-68
2022/04/13 02:41:55;;;;;;;16.90;7.63;;;;;;;12.74;71.36;101216.88;5017576;28;20026;-68
2022/04/13 02:44:20;;;;;;;16.67;7.50;;;;;;;12.75;71.34;101209.72;5009289;28;20064;-68
2022/04/13 02:46:45;;;;;;;15.73;7.85;;;;;;;12.78;71.69;101230.66;5013570;28;20044;-68
2022/04/13 02:49:11;;;;;;;16.30;7.45;;;;;;;12.77;71.69;101227.19;5017629;28;20077;-68
2022/04/13 02:51:36;;;;;;;18.67;8.57;;;;;;;12.78;71.56;101231.50;5013675;28;20112;-68
2022/04/13 02:54:02;;;;;;;17.13;7.57;;;;;;;12.78;71.31;101236.00;5011787;28;20029;-68
2022/04/13 02:56:27;;;;;;;19.20;7.50;;;;;;;12.82;71.43;101237.31;5011029;28;20033;-68
2022/04/13 02:58:52;;;;;;;17.92;7.22;;;;;;;12.76;71.34;101230.03;5009029;28;20041;-68
2022/04/13 03:01:18;;;;;;;16.10;7.57;;;;;;;12.77;71.29;101234.34;5007791;28;20555;-68
2022/04/13 03:03:43;;;;;;;15.25;7.78;;;;;;;12.77;71.27;101231.69;5013368;28;20030;-68
2022/04/13 03:06:08;;;;;;;17.75;7.88;;;;;;;12.78;71.44;101236.81;5009791;28;20033;-68
2022/04/13 03:08:33;;;;;;;17.45;7.85;;;;;;;12.73;71.21;101241.84;5022597;28;20615;-68
2022/04/13 03:10:59;;;;;;;18.30;8.15;;;;;;;12.67;71.09;101234.53;5019036;28;20022;-68
2022/04/13 03:13:24;;;;;;;18.30;8.60;;;;;;;12.72;71.62;101232.19;5019500;28;20030;-67
2022/04/13 03:15:49;;;;;;;15.10;8.02;;;;;;;12.59;71.35;101230.09;5011965;28;20022;-67
2022/04/13 03:18:14;;;;;;;17.70;7.70;;;;;;;12.61;71.21;101225.41;5013111;28;20404;-68
2022/04/13 03:20:40;;;;;;;15.32;8.18;;;;;;;12.49;71.25;101220.66;5009350;28;20026;-68
2022/04/13 03:23:05;;;;;;;17.05;7.90;;;;;;;12.50;71.16;101227.66;5019421;28;20033;-68
2022/04/13 03:25:32;;;;;;;15.63;7.78;;;;;;;12.38;71.09;101227.19;5007235;28;20038;-68
2022/04/13 03:27:57;;;;;;;15.13;7.97;;;;;;;12.35;71.46;101233.69;5008602;28;20044;-68
2022/04/13 03:30:23;;;;;;;15.25;8.15;;;;;;;12.37;71.60;101233.50;5011446;28;20025;-68
2022/04/13 03:32:48;;;;;;;15.40;8.65;;;;;;;12.29;71.59;101230.88;5018412;28;20407;-68
2022/04/13 03:35:14;;;;;;;16.48;8.23;;;;;;;12.25;71.91;101224.25;5019215;28;20073;-68
2022/04/13 03:37:40;;;;;;;14.50;7.97;;;;;;;12.24;71.76;101234.06;5007434;28;20470;-67
2022/04/13 03:40:07;;;;;;;21.42;8.60;;;;;;;12.27;72.12;101239.06;5011158;28;20551;-68
2022/04/13 03:42:34;;;;;;;23.83;8.45;;;;;;;12.25;71.75;101229.56;5017387;28;20369;-68
2022/04/13 03:45:07;;;;;;;15.77;7.68;;;;;;;12.29;71.64;101245.03;5011206;28;20036;-68
2022/04/13 03:47:32;;;;;;;15.88;7.90;;;;;;;12.16;71.58;101246.59;5005090;28;20026;-68
2022/04/13 03:49:58;;;;;;;14.20;7.50;;;;;;;12.06;71.95;101252.09;5020306;28;20468;-68
2022/04/13 03:52:24;;;;;;;17.65;7.97;;;;;;;11.93;72.06;101257.13;5018437;28;20568;-68
2022/04/13 03:54:49;;;;;;;22.92;9.30;;;;;;;11.91;72.19;101253.78;5012126;28;20044;-68
2022/04/13 03:57:15;;;;;;;17.98;8.10;;;;;;;11.76;72.29;101253.59;5007994;28;20091;-68
2022/04/13 03:59:40;;;;;;;23.30;9.13;;;;;;;11.72;73.00;101249.63;5008351;28;20045;-68
2022/04/13 04:02:06;;;;;;;21.17;10.23;;;;;;;11.74;73.01;101255.59;5010968;28;20088;-68
2022/04/13 04:04:31;;;;;;;19.10;9.20;;;;;;;11.62;72.94;101254.28;5011138;28;20083;-68
2022/04/13 04:06:56;;;;;;;19.65;10.23;;;;;;;11.48;73.37;101242.47;5015590;28;20444;-68
2022/04/13 04:09:22;;;;;;;15.45;9.02;;;;;;;11.47;73.29;101248.78;5011592;28;20405;-68
2022/04/13 04:11:47;;;;;;;18.88;9.10;;;;;;;11.55;73.56;101253.28;5022479;28;20492;-67
2022/04/13 04:14:12;;;;;;;17.33;9.35;;;;;;;11.40;73.53;101267.25;5019718;28;20041;-68
2022/04/13 04:16:37;;;;;;;15.98;9.57;;;;;;;11.37;74.16;101274.72;5011557;28;20022;-67
2022/04/13 04:19:03;;;;;;;19.45;10.27;;;;;;;11.24;74.10;101267.22;5014595;28;20404;-68
2022/04/13 04:21:28;;;;;;;17.05;10.25;;;;;;;11.25;74.79;101278.69;5018423;28;20034;-67
2022/04/13 04:23:53;;;;;;;18.00;9.88;;;;;;;11.14;75.07;101278.00;5011913;28;20853;-67
2022/04/13 04:26:18;;;;;;;18.58;10.23;;;;;;;11.17;75.48;101287.50;5016562;28;20041;-68
2022/04/13 04:28:44;;;;;;;17.27;10.00;;;;;;;11.14;75.81;101285.16;5022109;28;20029;-67
2022/04/13 04:31:09;;;;;;;22.90;10.02;;;;;;;11.07;75.76;101277.00;5017923;28;20030;-68
2022/04/13 04:33:34;;;;;;;20.40;10.43;;;;;;;11.15;76.21;101279.69;5009400;28;20041;-67
2022/04/13 04:36:00;;;;;;;21.20;10.50;;;;;;;11.10;76.25;101289.97;5015744;28;20151;-67
2022/04/13 04:38:27;;;;;;;18.38;10.30;;;;;;;11.10;76.48;101289.97;5021678;28;20044;-69
2022/04/13 04:40:53;;;;;;;19.23;9.60;;;;;;;11.17;76.31;101300.78;5014746;28;20025;-67
2022/04/13 04:43:18;;;;;;;22.48;9.65;;;;;;;11.18;76.48;101294.47;5022945;28;20028;-68
2022/04/13 04:45:43;;;;;;;20.42;10.40;;;;;;;11.26;76.44;101298.97;5019416;28;20117;-68
2022/04/13 04:48:09;;;;;;;22.25;10.70;;;;;;;11.30;75.99;101295.84;5014772;28;20062;-67
2022/04/13 04:50:34;;;;;;;17.50;9.82;;;;;;;11.27;76.25;101303.28;5015374;28;20041;-68
2022/04/13 04:53:00;;;;;;;20.08;10.73;;;;;;;11.27;75.93;101305.94;5018286;28;20516;-68
2022/04/13 04:55:25;;;;;;;24.85;10.05;;;;;;;11.28;76.13;101316.44;5010900;28;20029;-68
2022/04/13 04:57:51;;;;;;;20.85;10.10;;;;;;;11.23;76.52;101312.59;5009762;28;20590;-68
2022/04/13 05:00:18;;;;;;;19.58;11.40;;;;;;;11.31;77.13;101325.91;5017404;28;20030;-68
2022/04/13 05:02:46;;;;;;;24.48;10.90;;;;;;;11.28;76.96;101329.72;5017997;28;20553;-68
2022/04/13 05:05:13;;;;;;;20.65;10.75;;;;;;;11.25;77.32;101327.38;5015086;28;20034;-68
2022/04/13 05:07:39;;;;;;;22.40;11.50;;;;;;;11.25;77.19;101332.69;5019675;28;20053;-67
2022/04/13 05:10:05;;;;;;;23.95;11.75;;;;;;;11.22;77.69;101340.16;5020633;28;20520;-68
2022/04/13 05:12:31;;;;;;;23.70;12.43;;;;;;;11.21;78.09;101347.31;5018858;28;20121;-68
2022/04/13 05:14:56;;;;;;;22.85;12.48;;;;;;;11.26;78.31;101334.34;5009616;28;20064;-68
2022/04/13 05:17:22;;;;;;;21.60;11.95;;;;;;;11.30;78.46;101346.34;5015273;28;20025;-67
2022/04/13 05:19:48;;;;;;;22.98;11.20;;;;;;;11.38;78.01;101353.50;5011759;28;20037;-68
2022/04/13 05:22:15;;;;;;;18.25;11.13;;;;;;;11.41;78.08;101347.88;5018275;28;20121;-70
2022/04/13 05:24:40;;;;;;;22.58;11.10;;;;;;;11.51;78.05;101355.69;5013265;28;20034;-69
2022/04/13 05:27:07;;;;;;;22.65;10.90;;;;;;;11.55;77.99;101360.50;5007413;28;20034;-68
2022/04/13 05:29:33;;;;;;;23.58;11.70;;;;;;;11.59;77.75;101364.53;5027256;28;20025;-68
2022/04/13 05:31:58;;;;;;;25.67;12.23;;;;;;;11.63;77.46;101363.19;5011368;28;20378;-68
2022/04/13 05:34:23;;;;;;;25.23;12.73;;;;;;;11.74;77.82;101364.69;5008123;28;20068;-68
2022/04/13 05:36:48;;;;;;;28.45;13.35;;;;;;;11.76;77.98;101368.84;5009920;28;20108;-68
2022/04/13 05:39:14;;;;;;;27.95;14.52;;;;;;;11.81;78.37;101375.53;5008742;28;20035;-68
2022/04/13 05:41:39;;;;;;;26.73;14.27;;;;;;;11.84;78.28;101373.38;5008635;28;20029;-68
2022/04/13 05:44:05;;;;;;;31.20;14.30;;;;;;;11.88;78.25;101376.56;5007892;28;20037;-68
2022/04/13 05:46:30;;;;;;;26.02;14.98;;;;;;;11.94;78.71;101391.84;5009985;28;20033;-68
2022/04/13 05:48:55;;;;;;;27.17;15.50;;;;;;;11.89;78.93;101368.41;5006343;28;20030;-68
2022/04/13 05:51:21;;;;;;;25.65;16.33;;;;;;;11.98;78.79;101388.69;5016679;28;20052;-68
2022/04/13 05:53:46;;;;;;;26.85;16.75;;;;;;;12.00;78.83;101378.72;5008293;28;20064;-68
2022/04/13 05:56:11;;;;;;;25.15;16.88;;;;;;;12.12;79.22;101389.00;5008099;28;20030;-68
2022/04/13 05:58:36;;;;;;;26.42;16.95;;;;;;;12.13;78.83;101388.00;5006552;28;20413;-68
2022/04/13 06:01:02;;;;;;;26.85;17.52;;;;;;;12.13;79.23;101399.50;5006485;28;20181;-68
2022/04/13 06:03:27;;;;;;;29.45;17.80;;;;;;;12.14;79.37;101408.31;5007877;28;20073;-69
2022/04/13 06:05:52;;;;;;;28.90;18.52;;;;;;;12.18;79.12;101407.00;5007441;28;20029;-68
2022/04/13 06:08:18;;;;;;;28.83;17.90;;;;;;;12.21;79.44;101414.66;5007775;28;20104;-68
2022/04/13 06:10:43;;;;;;;28.52;19.67;;;;;;;12.18;79.53;101399.00;5009637;28;20473;-68
2022/04/13 06:13:09;;;;;;;27.80;19.23;;;;;;;12.23;79.54;101416.16;5010190;28;20030;-68
2022/04/13 06:15:34;;;;;;;32.53;20.10;;;;;;;12.26;79.65;101423.81;5010425;28;20040;-68
2022/04/13 06:18:00;;;;;;;31.73;19.75;;;;;;;12.31;80.02;101418.78;5011128;28;20401;-68
2022/04/13 06:20:25;;;;;;;31.23;20.13;;;;;;;12.38;79.76;101416.28;5009456;28;20030;-68
2022/04/13 06:22:52;;;;;;;29.80;20.08;;;;;;;12.40;80.14;101415.13;5006688;28;20026;-68
2022/04/13 06:25:18;;;;;;;35.20;21.35;;;;;;;12.40;79.89;101419.63;5008035;28;20448;-69
2022/04/13 06:27:44;;;;;;;34.25;21.08;;;;;;;12.36;80.16;101415.63;5006945;28;20025;-68
2022/04/13 06:30:10;;;;;;;36.80;21.38;;;;;;;12.51;79.99;101429.09;5006916;28;20508;-69
2022/04/13 06:32:38;;;;;;;32.85;21.55;;;;;;;12.52;80.27;101430.78;5007513;28;20513;-68
2022/04/13 06:35:05;;;;;;;28.63;20.35;;;;;;;12.54;80.13;101434.94;5006546;28;20057;-68
2022/04/13 06:37:31;;;;;;;32.95;20.65;;;;;;;12.54;79.99;101426.09;5008299;28;20069;-68
2022/04/13 06:39:56;;;;;;;30.33;20.63;;;;;;;12.57;79.96;101423.94;5009707;28;20441;-68
2022/04/13 06:42:22;;;;;;;34.63;21.20;;;;;;;12.62;79.99;101431.41;5007430;28;20109;-68
2022/04/13 06:44:52;;;;;;;35.08;20.58;;;;;;;12.63;79.83;101433.06;5007524;28;20045;-69
2022/04/13 06:47:18;;;;;;;30.10;20.30;;;;;;;12.60;79.79;101431.59;5006503;28;20029;-69
2022/04/13 06:49:44;;;;;;;31.80;21.38;;;;;;;12.70;80.16;101448.22;5006281;28;20029;-69
2022/04/13 06:52:11;;;;;;;29.25;21.10;;;;;;;12.76;80.39;101456.56;5007982;28;20048;-69
2022/04/13 06:54:37;;;;;;;34.13;21.75;;;;;;;12.77;80.62;101456.38;5015876;28;20511;-69
2022/04/13 06:57:02;;;;;;;31.25;21.65;;;;;;;12.87;80.71;101456.19;5014250;28;20112;-69
2022/04/13 06:59:27;;;;;;;37.08;21.77;;;;;;;12.92;80.54;101468.00;5012105;28;20033;-69
2022/04/13 07:01:53;;;;;;;38.03;21.38;;;;;;;12.94;80.70;101457.16;5008290;28;20121;-69
2022/04/13 07:04:18;;;;;;;35.97;21.95;;;;;;;13.05;80.04;101472.81;5006135;28;20033;-69
2022/04/13 07:06:43;;;;;;;32.58;22.23;;;;;;;13.12;79.82;101481.78;5012157;28;20029;-69
2022/04/13 07:09:09;;;;;;;33.50;22.60;;;;;;;13.16;79.73;101477.75;5013535;28;20032;-69
2022/04/13 07:11:34;;;;;;;32.78;22.65;;;;;;;13.20;79.81;101484.44;5020478;28;20032;-70
2022/04/13 07:13:59;;;;;;;31.25;22.98;;;;;;;13.26;79.96;101486.41;5006889;28;20100;-69
2022/04/13 07:16:24;;;;;;;44.03;24.50;;;;;;;13.29;79.71;101483.41;5006861;28;20042;-69
2022/04/13 07:18:50;;;;;;;36.83;24.05;;;;;;;13.33;80.08;101476.75;5009750;28;20405;-67
2022/04/13 07:21:16;;;;;;;34.17;22.70;;;;;;;13.29;79.02;101469.22;5006822;28;20026;-66
2022/04/13 07:23:42;;;;;;;34.83;23.45;;;;;;;13.40;79.79;101486.72;5014132;28;20022;-69
2022/04/13 07:26:07;;;;;;;41.45;23.60;;;;;;;13.42;79.60;101496.22;5018207;28;20045;-67
2022/04/13 07:28:32;;;;;;;32.70;22.50;;;;;;;13.45;79.13;101505.69;5012160;28;20030;-68
2022/04/13 07:30:57;;;;;;;36.70;23.60;;;;;;;13.52;79.51;101507.50;5006526;28;20479;-69
2022/04/13 07:33:23;;;;;;;32.20;22.30;;;;;;;13.54;79.57;101504.66;5000846;28;20061;-69
2022/04/13 07:35:48;;;;;;;39.72;22.20;;;;;;;13.59;79.31;101513.00;5005003;28;20045;-69
2022/04/13 07:38:13;;;;;;;36.28;22.27;;;;;;;13.66;78.97;101513.97;5006686;28;20076;-68
2022/04/13 07:40:39;;;;;;;34.35;22.33;;;;;;;13.72;78.66;101512.41;5004108;28;20111;-68
2022/04/13 07:43:04;;;;;;;32.30;21.08;;;;;;;13.82;78.93;101521.88;5009419;28;20789;-69
2022/04/13 07:45:30;;;;;;;29.63;20.25;;;;;;;13.83;78.28;101515.50;5007011;28;20040;-68
2022/04/13 07:47:55;;;;;;;28.98;19.23;;;;;;;13.81;77.77;101511.38;5007570;28;20026;-69
2022/04/13 07:50:20;;;;;;;29.13;19.85;;;;;;;13.96;77.99;101528.31;5012820;28;20034;-69
2022/04/13 07:52:46;;;;;;;26.17;18.05;;;;;;;14.02;78.05;101526.78;5007569;28;20033;-69
2022/04/13 07:55:11;;;;;;;23.30;14.93;;;;;;;14.07;77.67;101521.72;5016304;28;20556;-68
2022/04/13 07:57:38;;;;;;;26.83;14.38;;;;;;;14.11;76.72;101520.38;5008430;28;20200;-69
2022/04/13 08:00:05;;;;;;;22.00;13.98;;;;;;;14.20;76.48;101525.50;5005323;28;20034;-69
2022/04/13 08:02:33;;;;;;;22.38;14.70;;;;;;;14.33;76.51;101532.91;5009967;28;20037;-68
2022/04/13 08:04:59;;;;;;;26.90;15.15;;;;;;;14.48;76.93;101536.50;5007876;28;20424;-68
2022/04/13 08:07:25;;;;;;;22.13;13.25;;;;;;;14.61;76.59;101527.03;5005465;28;20614;-69
2022/04/13 08:09:51;;;;;;;23.13;13.30;;;;;;;14.69;76.16;101529.63;5018799;28;20029;-69
2022/04/13 08:12:17;;;;;;;18.45;12.90;;;;;;;14.70;75.48;101524.09;5011855;28;20447;-69
2022/04/13 08:14:46;;;;;;;20.27;12.95;;;;;;;14.76;75.07;101533.28;5011002;28;20030;-69
2022/04/13 08:17:12;;;;;;;17.60;12.15;;;;;;;14.86;74.68;101544.53;5019833;28;20113;-69
2022/04/13 08:19:37;;;;;;;19.65;13.02;;;;;;;14.91;74.79;101539.47;5013051;28;20148;-69
2022/04/13 08:22:03;;;;;;;18.67;12.10;;;;;;;15.00;74.15;101550.91;5017099;28;20112;-69
2022/04/13 08:24:28;;;;;;;25.00;13.48;;;;;;;15.12;74.25;101552.97;5007585;28;20088;-69
2022/04/13 08:26:54;;;;;;;22.42;12.75;;;;;;;15.24;74.19;101552.50;5013587;28;20029;-69
2022/04/13 08:29:19;;;;;;;20.63;11.65;;;;;;;15.38;73.81;101559.72;5022964;28;20607;-69
2022/04/13 08:31:45;;;;;;;18.58;8.18;;;;;;;15.48;73.26;101560.28;5012966;28;20033;-69
2022/04/13 08:34:10;;;;;;;14.75;8.60;;;;;;;15.68;72.69;101557.91;5007826;28;20060;-69
2022/04/13 08:36:35;;;;;;;14.90;8.80;;;;;;;15.79;72.04;101562.78;5006904;28;20399;-69
2022/04/13 08:39:00;;;;;;;17.13;9.25;;;;;;;15.88;71.40;101567.00;5006002;28;20026;-69
2022/04/13 08:41:48;;;;;;;14.77;8.77;;;;;;;15.89;70.95;101563.31;5019220;28;20040;-69
2022/04/13 08:44:28;;;;;;;18.23;10.25;;;;;;;15.94;70.41;101568.13;5017512;28;20565;-69
2022/04/13 08:46:59;;;;;;;16.25;9.77;;;;;;;16.08;70.58;101553.84;5010679;28;20034;-69
2022/04/13 08:49:24;;;;;;;18.50;8.98;;;;;;;16.27;70.60;101573.84;5015841;28;20431;-69
2022/04/13 08:51:52;;;;;;;14.68;9.13;;;;;;;16.30;69.42;101568.94;5020210;28;20535;-69
2022/04/13 08:54:28;;;;;;;14.50;8.43;;;;;;;16.39;68.32;101578.50;5016548;28;20039;-69
2022/04/13 08:56:55;;;;;;;14.25;8.40;;;;;;;16.31;68.26;101575.97;5005337;28;20026;-67
2022/04/13 08:59:26;;;;;;;13.57;8.20;;;;;;;16.37;67.71;101580.56;5009530;28;20034;-67
2022/04/13 09:02:17;;;;;;;13.15;7.82;;;;;;;16.37;68.06;101580.56;5015243;28;20055;-67
2022/04/13 09:04:44;;;;;;;12.13;7.40;;;;;;;16.41;67.70;101581.00;5027696;28;20492;-67
2022/04/13 09:07:13;;;;;;;14.18;7.75;;;;;;;16.53;67.13;101582.16;5022998;28;20034;-67
2022/04/13 09:09:44;;;;;;;17.70;8.32;;;;;;;16.55;66.50;101588.16;5009420;28;20018;-67
2022/04/13 09:12:11;;;;;;;15.48;8.23;;;;;;;16.62;66.36;101580.19;5021260;28;20044;-67
2022/04/13 09:14:37;;;;;;;15.85;8.20;;;;;;;16.58;66.53;101585.09;5015002;28;20037;-67
2022/04/13 09:17:04;;;;;;;13.82;7.82;;;;;;;16.53;66.10;101584.84;5022068;28;20030;-67
2022/04/13 09:19:30;;;;;;;14.05;8.32;;;;;;;16.63;66.28;101589.88;5010532;28;20074;-67
2022/04/13 09:21:58;;;;;;;11.82;8.38;;;;;;;16.66;66.07;101593.03;5009506;28;20030;-67
2022/04/13 09:24:27;;;;;;;13.85;8.75;;;;;;;16.69;66.09;101597.19;5020671;28;20029;-67
2022/04/13 09:26:53;;;;;;;17.23;10.13;;;;;;;16.67;66.03;101600.06;5011099;28;20017;-67
2022/04/13 09:29:18;;;;;;;15.02;9.40;;;;;;;16.65;65.65;101606.59;5007815;28;20068;-67
2022/04/13 09:31:45;;;;;;;16.50;9.45;;;;;;;16.64;66.30;101607.63;5011883;28;20485;-67
2022/04/13 09:34:10;;;;;;;15.52;9.02;;;;;;;16.63;66.13;101606.81;5018281;28;20052;-67
2022/04/13 09:36:35;;;;;;;14.68;8.95;;;;;;;16.62;66.05;101607.81;5025050;28;20477;-67
2022/04/13 09:39:01;;;;;;;12.07;8.85;;;;;;;16.63;66.37;101616.69;5026244;28;20035;-67
2022/04/13 09:41:35;;;;;;;16.92;8.90;;;;;;;16.61;66.44;101624.94;5019851;28;20036;-67
2022/04/13 09:44:01;;;;;;;16.55;8.77;;;;;;;16.52;66.12;101622.59;5013797;28;20059;-67
2022/04/13 09:46:30;;;;;;;14.85;8.57;;;;;;;16.43;66.46;101620.00;5009108;28;20053;-69
2022/04/13 09:49:15;;;;;;;15.02;8.77;;;;;;;16.30;66.98;101609.16;5007134;28;20037;-69
2022/04/13 09:51:43;;;;;;;15.98;8.55;;;;;;;16.26;67.14;101628.47;5009242;28;20030;-69
2022/04/13 09:54:12;;;;;;;15.63;8.25;;;;;;;16.21;67.38;101642.44;5008122;28;20026;-69
2022/04/13 09:56:42;;;;;;;14.05;8.57;;;;;;;16.15;67.55;101645.03;5007387;28;20044;-69
2022/04/13 09:59:07;;;;;;;15.57;9.65;;;;;;;16.01;67.38;101626.13;5008168;28;20595;-69
2022/04/13 10:01:34;;;;;;;18.20;9.90;;;;;;;15.94;67.58;101632.41;5008317;28;20022;-69
2022/04/13 10:04:00;;;;;;;16.60;9.45;;;;;;;15.91;68.77;101630.94;5007171;28;20088;-69
2022/04/13 10:06:28;;;;;;;17.35;9.93;;;;;;;15.90;69.33;101623.06;5009626;28;20390;-69
2022/04/13 10:09:08;;;;;;;16.23;10.13;;;;;;;15.86;69.29;101632.50;5001306;28;20101;-69
2022/04/13 10:11:34;;;;;;;16.02;9.52;;;;;;;15.85;69.21;101645.06;5005723;28;21688;-68
2022/04/13 10:14:05;;;;;;;16.73;10.20;;;;;;;15.78;69.26;101638.78;5005612;28;20464;-69
2022/04/13 10:16:34;;;;;;;16.10;10.18;;;;;;;15.74;69.19;101649.03;5006431;28;20061;-69
2022/04/13 10:19:02;;;;;;;18.73;10.35;;;;;;;15.68;69.48;101643.59;4999977;28;20032;-69
2022/04/13 10:21:40;;;;;;;18.13;9.75;;;;;;;15.64;69.62;101644.97;5010928;28;20033;-68
2022/04/13 10:24:07;;;;;;;18.75;11.00;;;;;;;15.60;69.81;101649.84;5007210;28;20026;-69
2022/04/13 10:26:33;;;;;;;17.52;10.50;;;;;;;15.55;69.45;101641.50;5009106;28;20061;-68
2022/04/13 10:28:58;;;;;;;16.55;10.50;;;;;;;15.50;70.27;101642.06;5004166;28;20049;-68
2022/04/13 10:31:23;;;;;;;19.17;11.05;;;;;;;15.53;70.17;101648.91;4998895;28;20026;-69
2022/04/13 10:33:49;;;;;;;18.42;11.48;;;;;;;15.56;70.00;101647.69;4999330;28;20844;-69
2022/04/13 10:36:16;;;;;;;23.88;11.88;;;;;;;15.49;70.37;101647.59;4998607;28;20030;-68
2022/04/13 10:38:43;;;;;;;18.27;11.43;;;;;;;15.55;70.33;101641.50;5003422;28;20521;-68
2022/04/13 10:41:14;;;;;;;19.27;12.77;;;;;;;15.61;70.70;101651.53;5016786;28;20025;-68
2022/04/13 10:43:41;;;;;;;20.27;12.45;;;;;;;15.65;70.84;101650.16;5007881;28;20030;-68
2022/04/13 10:46:07;;;;;;;22.58;12.85;;;;;;;15.67;71.03;101656.16;5015181;28;20104;-68
2022/04/13 10:48:40;;;;;;;24.38;14.25;;;;;;;15.65;71.39;101652.00;5002863;28;20030;-69
2022/04/13 10:51:13;;;;;;;20.10;14.68;;;;;;;15.63;71.49;101665.56;5006271;28;20037;-69
2022/04/13 10:53:46;;;;;;;23.02;13.25;;;;;;;15.59;71.00;101668.78;5011093;28;20112;-69
2022/04/13 10:56:12;;;;;;;21.67;14.18;;;;;;;15.58;71.43;101667.94;5008448;28;20488;-68
2022/04/13 10:58:58;;;;;;;22.17;14.77;;;;;;;15.59;72.19;101658.91;5005867;28;20017;-68
2022/04/13 11:01:28;;;;;;;28.65;14.98;;;;;;;15.66;72.29;101667.88;5005731;28;20038;-68
2022/04/13 11:03:54;;;;;;;22.02;14.70;;;;;;;15.62;71.99;101671.94;5007397;28;20021;-68
2022/04/13 11:06:20;;;;;;;14.27;8.40;;;;;;;15.59;72.28;101680.31;5008856;28;20025;-68
2022/04/13 11:09:03;;;;;;;13.27;7.85;;;;;;;15.58;71.89;101680.47;5004588;28;20504;-68
2022/04/13 11:11:30;;;;;;;14.18;6.93;;;;;;;15.54;71.63;101687.22;5007944;28;20029;-68